Time;durP1;ratioP1;P1;durP2;ratioP2;P2;SDS_P1;SDS_P2;PMS_P1;PMS_P2;Temp;Humidity;BMP_temperature;BMP_pressure;BME280_temperature;BME280_humidity;BME280_pressure;Samples;Min_cycle;Max_cycle;Signal;HPM_P1;HPM_P2
2023/01/21 00:02:05;;;;;;;42.83;23.55;;;;;;;-2.56;100.00;101653.13;5134021;27;20104;-79
2023/01/21 00:04:35;;;;;;;45.33;23.83;;;;;;;-2.56;100.00;101678.75;5130314;28;20090;-79
2023/01/21 00:07:02;;;;;;;44.42;23.15;;;;;;;-2.62;100.00;101684.88;5131627;27;20063;-80
2023/01/21 00:09:28;;;;;;;37.92;22.90;;;;;;;-2.68;100.00;101682.50;5134336;27;20047;-79
2023/01/21 00:11:55;;;;;;;44.65;24.42;;;;;;;-2.61;100.00;101696.81;5129751;28;20056;-80
2023/01/21 00:14:21;;;;;;;38.33;23.55;;;;;;;-2.68;100.00;101695.31;5129266;28;20134;-80
2023/01/21 00:16:48;;;;;;;41.03;23.38;;;;;;;-2.73;100.00;101692.06;5130838;27;20107;-80
2023/01/21 00:19:15;;;;;;;45.28;23.27;;;;;;;-2.72;100.00;101696.28;5135083;28;20031;-80
2023/01/21 00:21:45;;;;;;;38.65;22.95;;;;;;;-2.70;100.00;101699.66;5137670;27;20115;-80
2023/01/21 00:24:12;;;;;;;43.95;24.65;;;;;;;-2.73;100.00;101708.25;5143588;27;20087;-79
2023/01/21 00:26:38;;;;;;;46.13;24.52;;;;;;;-2.71;100.00;101705.66;5135230;27;20071;-79
2023/01/21 00:29:05;;;;;;;46.35;23.33;;;;;;;-2.75;100.00;101699.78;5129413;28;20157;-79
2023/01/21 00:31:32;;;;;;;40.08;22.90;;;;;;;-2.73;100.00;101718.50;5129503;28;20047;-79
2023/01/21 00:33:58;;;;;;;41.70;22.73;;;;;;;-2.73;100.00;101720.22;5132373;27;20043;-79
2023/01/21 00:36:28;;;;;;;47.95;24.67;;;;;;;-2.80;100.00;101721.28;5134084;27;20067;-79
2023/01/21 00:38:56;;;;;;;42.95;22.88;;;;;;;-2.92;100.00;101727.63;5130056;28;20047;-79
2023/01/21 00:41:25;;;;;;;47.20;22.38;;;;;;;-2.88;100.00;101728.38;5133238;27;20051;-80
2023/01/21 00:43:52;;;;;;;43.13;22.98;;;;;;;-2.90;100.00;101728.44;5128003;28;20086;-81
2023/01/21 00:46:19;;;;;;;39.60;21.40;;;;;;;-2.82;100.00;101743.56;5131983;27;20389;-79
2023/01/21 00:48:46;;;;;;;40.67;23.90;;;;;;;-2.84;100.00;101745.34;5136139;27;20070;-80
2023/01/21 00:51:13;;;;;;;44.10;23.23;;;;;;;-2.77;100.00;101749.38;5132387;27;20107;-80
2023/01/21 00:53:41;;;;;;;35.38;20.15;;;;;;;-2.74;100.00;101752.69;5127162;28;20075;-80
2023/01/21 00:56:12;;;;;;;41.13;21.92;;;;;;;-2.75;100.00;101751.03;5127738;28;20335;-79
2023/01/21 00:58:38;;;;;;;41.45;21.67;;;;;;;-2.79;100.00;101754.56;5137234;27;20079;-79
2023/01/21 01:01:08;;;;;;;35.38;21.10;;;;;;;-2.69;100.00;101763.66;5129002;27;20073;-81
2023/01/21 01:03:36;;;;;;;38.20;21.30;;;;;;;-2.63;100.00;101766.94;5124982;28;20111;-79
2023/01/21 01:06:03;;;;;;;43.30;22.42;;;;;;;-2.67;100.00;101764.44;5137243;27;20061;-79
2023/01/21 01:08:30;;;;;;;46.28;23.58;;;;;;;-2.69;100.00;101768.78;5146305;27;20134;-80
2023/01/21 01:10:58;;;;;;;39.08;22.45;;;;;;;-2.68;100.00;101762.78;5140313;27;20147;-80
2023/01/21 01:13:29;;;;;;;36.47;21.60;;;;;;;-2.71;100.00;101782.53;5126855;28;20087;-79
2023/01/21 01:15:57;;;;;;;40.30;21.23;;;;;;;-2.76;100.00;101774.13;5139606;27;20103;-79
2023/01/21 01:18:24;;;;;;;39.25;20.65;;;;;;;-2.77;100.00;101782.69;5126777;28;20077;-80
2023/01/21 01:20:51;;;;;;;35.90;22.10;;;;;;;-2.84;100.00;101778.66;5127684;28;20067;-80
2023/01/21 01:23:18;;;;;;;37.45;20.52;;;;;;;-2.94;100.00;101787.47;5128628;27;20157;-79
2023/01/21 01:25:54;;;;;;;35.38;20.42;;;;;;;-2.95;100.00;101790.91;5131635;27;20047;-78
2023/01/21 01:28:21;;;;;;;36.58;21.13;;;;;;;-3.03;100.00;101796.22;5125767;28;20127;-79
2023/01/21 01:30:49;;;;;;;37.15;21.35;;;;;;;-3.05;100.00;101792.88;5129879;27;20043;-78
2023/01/21 01:33:18;;;;;;;41.00;23.10;;;;;;;-3.08;100.00;101798.06;5124070;28;20048;-79
2023/01/21 01:35:45;;;;;;;40.95;21.85;;;;;;;-3.04;100.00;101799.66;5123533;28;20047;-80
2023/01/21 01:38:12;;;;;;;39.00;21.65;;;;;;;-3.04;100.00;101799.66;5132153;27;20501;-80
2023/01/21 01:40:39;;;;;;;38.58;21.80;;;;;;;-3.03;100.00;101809.03;5128692;27;20123;-79
2023/01/21 01:43:12;;;;;;;41.45;21.95;;;;;;;-3.04;100.00;101815.88;5123043;28;20047;-80
2023/01/21 01:45:39;;;;;;;37.22;20.70;;;;;;;-3.01;100.00;101820.91;5124853;27;20069;-79
2023/01/21 01:48:11;;;;;;;41.47;22.38;;;;;;;-3.04;100.00;101822.72;5132981;27;20119;-79
2023/01/21 01:50:38;;;;;;;38.47;22.67;;;;;;;-3.06;100.00;101827.88;5126962;28;20077;-79
2023/01/21 01:53:06;;;;;;;40.58;21.92;;;;;;;-3.05;100.00;101832.09;5129025;27;20070;-80
2023/01/21 01:55:36;;;;;;;36.63;20.45;;;;;;;-3.12;100.00;101840.00;5126127;28;20051;-80
2023/01/21 01:58:06;;;;;;;35.03;20.55;;;;;;;-3.14;100.00;101839.19;5126815;28;20047;-80
2023/01/21 02:00:34;;;;;;;37.17;21.05;;;;;;;-3.09;100.00;101850.16;5127089;28;20086;-79
2023/01/21 02:05:54;;;;;;;35.47;20.55;;;;;;;-3.19;100.00;101849.53;5114297;27;20135;-79
2023/01/21 02:08:21;;;;;;;37.95;22.00;;;;;;;-3.24;100.00;101858.22;5123559;28;20116;-77
2023/01/21 02:10:48;;;;;;;38.20;21.83;;;;;;;-3.37;100.00;101855.13;5134805;27;20039;-78
2023/01/21 02:13:16;;;;;;;38.50;20.88;;;;;;;-3.43;100.00;101873.19;5128961;27;20070;-78
2023/01/21 02:16:03;;;;;;;45.40;22.25;;;;;;;-3.34;100.00;101872.97;5140515;27;20067;-78
2023/01/21 02:18:42;;;;;;;38.05;20.83;;;;;;;-3.28;100.00;101867.69;5123852;28;20047;-80
2023/01/21 02:21:35;;;;;;;39.97;21.85;;;;;;;-3.24;100.00;101871.84;5140091;27;20078;-78
2023/01/21 02:24:26;;;;;;;;;;;;;;;-3.36;100.00;101877.28;5134083;27;20047;-78
2023/01/21 02:27:32;;;;;;;40.03;21.05;;;;;;;-3.56;100.00;101884.59;5105241;28;19920;-78
2023/01/21 02:30:28;;;;;;;35.22;21.05;;;;;;;-3.61;100.00;101896.63;5127046;28;20055;-79
2023/01/21 02:33:19;;;;;;;37.17;20.17;;;;;;;-3.76;100.00;101906.34;5142920;27;20107;-78
2023/01/21 02:36:02;;;;;;;37.40;20.63;;;;;;;-3.82;100.00;101898.81;5103812;28;20048;-79
2023/01/21 02:38:35;;;;;;;35.97;21.23;;;;;;;-3.92;100.00;101894.78;5112077;28;20127;-80
2023/01/21 02:41:06;;;;;;;;;;;;;;;-3.82;100.00;101906.50;5114837;28;20076;-80
2023/01/21 02:43:39;;;;;;;44.97;21.92;;;;;;;-3.85;100.00;101910.84;5111147;28;19966;-79
2023/01/21 02:46:12;;;;;;;40.67;20.40;;;;;;;-3.83;100.00;101909.09;5111524;28;20090;-81
2023/01/21 02:48:47;;;;;;;37.85;21.83;;;;;;;-3.68;100.00;101908.72;5141121;22;20050;-78
2023/01/21 02:51:14;;;;;;;39.47;22.20;;;;;;;-3.56;100.00;101916.13;5120473;28;20518;-77
2023/01/21 02:53:40;;;;;;;50.00;22.98;;;;;;;-3.39;100.00;101913.19;5122047;28;20043;-77
2023/01/21 02:56:12;;;;;;;44.85;23.13;;;;;;;-3.44;100.00;101926.09;5119479;28;20047;-77
2023/01/21 02:58:42;;;;;;;43.13;21.80;;;;;;;-3.38;100.00;101922.56;5111895;28;20130;-78
2023/01/21 03:01:19;;;;;;;39.97;22.88;;;;;;;-3.44;100.00;101917.56;5107406;28;20040;-77
2023/01/21 03:04:00;;;;;;;40.90;21.60;;;;;;;-3.44;100.00;101935.50;5111442;28;20126;-79
2023/01/21 03:06:52;;;;;;;41.17;22.58;;;;;;;-3.45;100.00;101932.09;5113396;28;20078;-78
2023/01/21 03:09:23;;;;;;;40.88;22.50;;;;;;;-3.43;100.00;101940.56;5116223;28;20052;-77
2023/01/21 03:12:01;;;;;;;45.40;22.67;;;;;;;-3.44;100.00;101943.16;5119461;28;20043;-77
2023/01/21 03:17:24;;;;;;;39.55;22.38;;;;;;;-3.54;100.00;101937.41;5115152;28;20047;-77
2023/01/21 03:19:57;;;;;;;42.67;22.30;;;;;;;-3.62;100.00;101935.88;5111963;28;20051;-78
2023/01/21 03:22:27;;;;;;;37.80;22.13;;;;;;;-3.70;100.00;101942.00;5111752;28;20079;-76
2023/01/21 03:24:57;;;;;;;39.13;22.52;;;;;;;-3.65;100.00;101946.19;5117661;28;20045;-77
2023/01/21 03:27:27;;;;;;;41.97;23.05;;;;;;;-3.74;100.00;101944.66;5110531;28;20079;-78
2023/01/21 03:29:59;;;;;;;49.00;24.67;;;;;;;-3.76;100.00;101944.69;5110264;28;20081;-77
2023/01/21 03:32:28;;;;;;;40.70;22.95;;;;;;;-3.79;100.00;101942.25;5120339;28;20134;-78
2023/01/21 03:34:57;;;;;;;43.42;22.77;;;;;;;-3.74;100.00;101952.34;5108976;28;20047;-79
2023/01/21 03:37:32;;;;;;;38.70;21.95;;;;;;;-3.69;100.00;101948.81;5114828;27;20092;-78
2023/01/21 03:40:06;;;;;;;45.28;23.27;;;;;;;-3.71;100.00;101960.78;5111195;27;20054;-77
2023/01/21 03:42:33;;;;;;;42.55;23.15;;;;;;;-3.68;100.00;101965.00;5116549;27;20047;-79
2023/01/21 03:45:00;;;;;;;39.00;22.15;;;;;;;-3.64;100.00;101964.06;5114433;27;20130;-78
2023/01/21 03:47:31;;;;;;;40.63;22.90;;;;;;;-3.65;100.00;101964.09;5114216;27;20094;-78
2023/01/21 03:50:04;;;;;;;44.40;23.40;;;;;;;-3.67;100.00;101975.19;5113246;27;20051;-78
2023/01/21 03:52:30;;;;;;;;;;;;;;;-3.58;100.00;101976.72;5112039;27;20098;-78
2023/01/21 03:54:57;;;;;;;41.20;22.63;;;;;;;-3.56;100.00;101984.38;5110824;27;19927;-77
2023/01/21 03:57:24;;;;;;;44.25;23.25;;;;;;;-3.58;100.00;101981.00;5113067;27;20147;-78
2023/01/21 03:59:50;;;;;;;43.50;22.23;;;;;;;-3.59;100.00;101984.44;5104362;27;20079;-76
2023/01/21 04:02:18;;;;;;;45.75;23.20;;;;;;;-3.53;100.00;101986.88;5111283;27;20080;-76
2023/01/21 04:04:45;;;;;;;42.85;23.83;;;;;;;-3.54;100.00;101985.19;5113160;27;20043;-77
2023/01/21 04:07:14;;;;;;;40.90;23.45;;;;;;;-3.56;100.00;101989.50;5109151;27;20058;-78
2023/01/21 04:09:41;;;;;;;44.72;23.83;;;;;;;-3.56;100.00;101989.50;5116968;27;20107;-77
2023/01/21 04:12:07;;;;;;;44.30;24.30;;;;;;;-3.58;100.00;101992.06;5117364;27;20078;-77
2023/01/21 04:14:34;;;;;;;40.75;22.77;;;;;;;-3.65;100.00;101999.91;5112628;27;20069;-78
2023/01/21 04:17:00;;;;;;;41.20;23.85;;;;;;;-3.79;100.00;101990.84;5108798;27;20043;-78
2023/01/21 04:19:27;;;;;;;45.42;24.25;;;;;;;-3.92;100.00;101991.09;5111564;27;20115;-78
2023/01/21 04:21:54;;;;;;;43.17;23.95;;;;;;;-3.89;100.00;102002.13;5109425;27;20049;-77
2023/01/21 04:24:22;;;;;;;47.45;25.23;;;;;;;-3.94;100.00;102003.91;5107318;27;20134;-77
2023/01/21 04:26:48;;;;;;;44.05;24.60;;;;;;;-3.89;100.00;101991.88;5107005;27;20035;-77
2023/01/21 04:29:15;;;;;;;46.38;26.30;;;;;;;-3.78;100.00;102004.47;5107234;27;20131;-77
2023/01/21 04:31:42;;;;;;;45.00;24.50;;;;;;;-3.74;100.00;102006.06;5118216;27;20043;-78
2023/01/21 04:34:09;;;;;;;45.05;24.00;;;;;;;-3.77;100.00;102003.56;5112340;27;20088;-77
2023/01/21 04:36:35;;;;;;;48.47;24.60;;;;;;;-3.75;100.00;102020.56;5117718;27;20046;-79
2023/01/21 04:39:02;;;;;;;46.97;24.50;;;;;;;-3.77;100.00;102014.63;5113894;27;20142;-78
2023/01/21 04:41:30;;;;;;;46.78;24.95;;;;;;;-3.85;100.00;102013.97;5111204;27;20044;-77
2023/01/21 04:43:57;;;;;;;50.05;24.83;;;;;;;-3.92;100.00;102021.78;5107117;27;20126;-75
2023/01/21 04:46:23;;;;;;;48.88;26.40;;;;;;;-4.02;100.00;102010.91;5109155;27;20083;-77
2023/01/21 04:48:50;;;;;;;49.47;26.52;;;;;;;-4.07;100.00;102012.69;5108240;27;20146;-78
2023/01/21 04:51:17;;;;;;;47.70;25.77;;;;;;;-4.10;100.00;102012.75;5105731;27;20138;-76
2023/01/21 04:53:43;;;;;;;52.85;25.92;;;;;;;-4.13;100.00;102017.91;5104631;27;20167;-77
2023/01/21 04:56:10;;;;;;;50.33;27.48;;;;;;;-4.23;100.00;102014.69;5109920;27;20480;-77
2023/01/21 04:58:38;;;;;;;48.30;26.10;;;;;;;-4.30;100.00;102030.19;5105803;27;20467;-76
2023/01/21 05:01:04;;;;;;;48.35;26.33;;;;;;;-4.35;100.00;102028.56;5105363;27;20067;-77
2023/01/21 05:03:31;;;;;;;50.63;25.25;;;;;;;-4.39;100.00;102031.19;5108518;27;20412;-77
2023/01/21 05:05:58;;;;;;;43.45;24.95;;;;;;;-4.46;100.00;102040.66;5106502;27;20139;-77
2023/01/21 05:08:24;;;;;;;45.83;25.02;;;;;;;-4.50;100.00;102039.03;5112412;27;20055;-78
2023/01/21 05:10:51;;;;;;;41.60;24.30;;;;;;;-4.52;100.00;102045.88;5112833;27;20039;-78
2023/01/21 05:13:17;;;;;;;46.33;24.35;;;;;;;-4.52;100.00;102042.47;5109935;27;20048;-78
2023/01/21 05:15:45;;;;;;;43.33;24.38;;;;;;;-4.55;100.00;102042.53;5110442;27;20150;-76
2023/01/21 05:18:12;;;;;;;47.42;24.50;;;;;;;-4.57;100.00;102036.59;5106408;27;20054;-78
2023/01/21 05:20:39;;;;;;;42.28;23.90;;;;;;;-4.61;100.00;102046.03;5109400;27;20035;-76
2023/01/21 05:23:05;;;;;;;44.72;24.30;;;;;;;-4.64;100.00;102052.88;5103509;27;20123;-78
2023/01/21 05:25:32;;;;;;;47.58;24.40;;;;;;;-4.72;100.00;102060.66;5108204;27;20378;-77
2023/01/21 05:27:58;;;;;;;51.60;26.60;;;;;;;-4.76;100.00;102059.91;5104714;27;20072;-76
2023/01/21 05:30:25;;;;;;;42.97;24.75;;;;;;;-4.78;100.00;102059.06;5113612;27;20048;-78
2023/01/21 05:32:54;;;;;;;43.38;24.30;;;;;;;-4.77;100.00;102070.13;5116225;27;20504;-78
2023/01/21 05:35:22;;;;;;;48.92;25.52;;;;;;;-4.78;100.00;102076.09;5108074;27;20135;-77
2023/01/21 05:37:48;;;;;;;44.13;23.58;;;;;;;-4.81;100.00;102078.72;5109685;27;20047;-78
2023/01/21 05:40:16;;;;;;;47.35;25.08;;;;;;;-4.85;100.00;102077.91;5113619;27;20547;-78
2023/01/21 05:42:43;;;;;;;45.58;24.88;;;;;;;-4.89;100.00;102083.94;5118891;27;20103;-78
2023/01/21 05:45:12;;;;;;;50.40;25.27;;;;;;;-4.90;100.00;102091.59;5111324;27;20075;-77
2023/01/21 05:47:38;;;;;;;51.50;26.17;;;;;;;-4.95;100.00;102091.66;5117326;27;20050;-77
2023/01/21 05:50:08;;;;;;;44.90;24.63;;;;;;;-4.91;100.00;102095.03;5107025;27;20075;-78
2023/01/21 05:52:35;;;;;;;44.50;23.52;;;;;;;-4.92;100.00;102108.66;5108059;27;20040;-77
2023/01/21 05:55:02;;;;;;;50.60;25.33;;;;;;;-4.88;100.00;102102.63;5108642;27;20040;-77
2023/01/21 05:57:29;;;;;;;49.08;26.38;;;;;;;-4.74;100.00;102111.78;5102357;27;20130;-77
2023/01/21 05:59:56;;;;;;;53.75;26.33;;;;;;;-4.69;100.00;102109.16;5103732;27;20135;-78
2023/01/21 06:02:23;;;;;;;49.53;24.92;;;;;;;-4.65;100.00;102110.78;5103107;27;20071;-75
2023/01/21 06:04:49;;;;;;;52.03;25.50;;;;;;;-4.70;100.00;102120.22;5100627;27;20122;-77
2023/01/21 06:07:17;;;;;;;52.92;24.88;;;;;;;-4.69;100.00;102124.47;5101638;27;20082;-77
2023/01/21 06:09:44;;;;;;;50.17;25.25;;;;;;;-4.73;100.00;102123.69;5094091;27;20524;-77
2023/01/21 06:12:10;;;;;;;51.67;24.52;;;;;;;-4.80;100.00;102129.75;5096682;27;20067;-77
2023/01/21 06:14:39;;;;;;;60.05;28.08;;;;;;;-4.84;100.00;102120.44;5101024;27;20130;-77
2023/01/21 06:17:05;;;;;;;50.15;25.25;;;;;;;-4.85;100.00;102143.44;5107120;27;20054;-77
2023/01/21 06:19:32;;;;;;;52.67;25.83;;;;;;;-4.86;100.00;102136.66;5105666;27;20051;-78
2023/01/21 06:21:59;;;;;;;48.20;25.25;;;;;;;-4.93;100.00;102148.66;5099154;28;20428;-78
2023/01/21 06:24:27;;;;;;;51.47;25.98;;;;;;;-4.88;100.00;102143.50;5104357;27;20111;-78
2023/01/21 06:26:53;;;;;;;51.30;25.63;;;;;;;-4.83;100.00;102152.78;5106698;27;20132;-78
2023/01/21 06:29:20;;;;;;;55.78;28.40;;;;;;;-4.85;100.00;102151.97;5103491;27;20206;-78
2023/01/21 06:31:48;;;;;;;56.60;28.13;;;;;;;-4.78;100.00;102157.81;5106677;28;20118;-78
2023/01/21 06:34:15;;;;;;;52.65;26.92;;;;;;;-4.82;100.00;102153.63;5101590;28;20047;-79
2023/01/21 06:36:41;;;;;;;55.10;29.25;;;;;;;-4.88;100.00;102164.75;5107361;27;20051;-79
2023/01/21 06:39:09;;;;;;;58.08;31.00;;;;;;;-4.93;100.00;102163.97;5110055;28;20078;-77
2023/01/21 06:41:37;;;;;;;54.47;28.92;;;;;;;-5.01;100.00;102163.22;5108371;28;20135;-78
2023/01/21 06:44:04;;;;;;;65.13;30.25;;;;;;;-5.07;100.00;102165.84;5093387;28;20058;-78
2023/01/21 06:46:31;;;;;;;61.03;30.48;;;;;;;-5.06;100.00;102165.84;5100881;28;20127;-78
2023/01/21 06:48:57;;;;;;;61.83;29.30;;;;;;;-5.04;100.00;102174.31;5095992;28;20119;-79
2023/01/21 06:51:24;;;;;;;59.15;29.80;;;;;;;-5.08;100.00;102165.00;5095901;28;20047;-78
2023/01/21 06:53:51;;;;;;;56.67;29.65;;;;;;;-5.11;100.00;102176.97;5103632;28;20147;-78
2023/01/21 06:56:17;;;;;;;54.28;27.55;;;;;;;-5.15;100.00;102176.16;5099417;28;20044;-79
2023/01/21 06:58:45;;;;;;;49.75;26.30;;;;;;;-5.16;100.00;102178.72;5097420;28;20104;-79
2023/01/21 07:01:12;;;;;;;50.85;26.75;;;;;;;-5.16;100.00;102174.47;5097802;28;20123;-79
2023/01/21 07:03:39;;;;;;;52.10;26.40;;;;;;;-5.13;100.00;102178.69;5098035;28;20093;-78
2023/01/21 07:06:06;;;;;;;53.92;26.83;;;;;;;-5.19;100.00;102182.16;5096593;28;20503;-78
2023/01/21 07:08:33;;;;;;;52.00;27.35;;;;;;;-5.13;100.00;102194.84;5092616;28;20059;-78
2023/01/21 07:10:59;;;;;;;54.25;26.48;;;;;;;-5.18;100.00;102199.16;5095953;28;20066;-77
2023/01/21 07:13:26;;;;;;;53.08;27.15;;;;;;;-5.10;100.00;102206.72;5100545;28;20142;-78
2023/01/21 07:15:59;;;;;;;52.92;26.92;;;;;;;-4.93;100.00;102199.72;5098783;28;20048;-78
2023/01/21 07:18:25;;;;;;;;;;;;;;;-4.81;100.00;102206.38;5113421;28;20479;-76
2023/01/21 07:20:52;;;;;;;56.10;27.00;;;;;;;-4.83;100.00;102220.88;5114760;28;20381;-77
2023/01/21 07:23:18;;;;;;;48.95;25.23;;;;;;;-4.79;100.00;102219.97;5097440;28;20051;-76
2023/01/21 07:25:45;;;;;;;57.30;27.63;;;;;;;-4.76;100.00;102225.91;5096023;28;20060;-77
2023/01/21 07:28:12;;;;;;;69.18;29.55;;;;;;;-4.69;100.00;102236.84;5103840;28;20157;-76
2023/01/21 07:30:38;;;;;;;57.67;28.83;;;;;;;-4.68;100.00;102234.28;5101144;28;20047;-76
2023/01/21 07:33:07;;;;;;;56.33;28.30;;;;;;;-4.48;100.00;102235.72;5095134;28;20175;-77
2023/01/21 07:35:34;;;;;;;54.47;28.27;;;;;;;-4.32;100.00;102242.31;5095898;28;20450;-77
2023/01/21 07:38:01;;;;;;;62.17;28.95;;;;;;;-4.42;100.00;102246.72;5103945;28;20161;-77
2023/01/21 07:40:28;;;;;;;59.00;28.73;;;;;;;-4.49;100.00;102242.53;5112951;28;20075;-78
2023/01/21 07:42:55;;;;;;;51.20;28.10;;;;;;;-4.52;100.00;102249.41;5102954;28;20043;-77
2023/01/21 07:45:23;;;;;;;54.90;27.52;;;;;;;-4.64;100.00;102245.28;5109406;28;20130;-76
2023/01/21 07:47:50;;;;;;;58.65;30.52;;;;;;;-4.59;100.00;102251.19;5102410;28;20051;-77
2023/01/21 07:50:18;;;;;;;56.03;27.83;;;;;;;-4.59;100.00;102250.34;5098830;28;20052;-78
2023/01/21 07:52:45;;;;;;;62.33;30.55;;;;;;;-4.62;100.00;102250.38;5105235;28;20081;-76
2023/01/21 07:55:11;;;;;;;55.55;29.52;;;;;;;-4.47;100.00;102251.03;5101890;28;20051;-78
2023/01/21 07:57:38;;;;;;;64.00;29.98;;;;;;;-4.37;100.00;102252.59;5105629;28;20101;-77
2023/01/21 08:00:06;;;;;;;59.35;29.98;;;;;;;-4.17;100.00;102256.56;5111433;28;20080;-77
2023/01/21 08:02:33;;;;;;;57.10;28.13;;;;;;;-4.04;100.00;102258.91;5111864;28;20483;-77
2023/01/21 08:05:00;;;;;;;63.08;30.13;;;;;;;-3.78;100.00;102263.59;5114119;28;20055;-77
2023/01/21 08:07:28;;;;;;;65.20;30.30;;;;;;;-3.67;100.00;102259.16;5105998;28;20051;-78
2023/01/21 08:09:54;;;;;;;60.53;31.05;;;;;;;-3.44;100.00;102266.47;5114014;28;20051;-77
2023/01/21 08:12:21;;;;;;;65.70;32.25;;;;;;;-3.26;100.00;102270.38;5112093;28;20052;-79
2023/01/21 08:14:48;;;;;;;60.45;31.52;;;;;;;-3.07;100.00;102266.63;5099637;28;20055;-78
2023/01/21 08:17:14;;;;;;;66.28;34.10;;;;;;;-3.02;100.00;102274.22;5097197;28;20469;-78
2023/01/21 08:19:41;;;;;;;65.80;32.50;;;;;;;-2.91;100.00;102272.31;5097580;28;20080;-78
2023/01/21 08:22:07;;;;;;;61.72;32.47;;;;;;;-2.78;100.00;102283.97;5110117;28;20122;-77
2023/01/21 08:24:36;;;;;;;58.97;31.13;;;;;;;-2.77;100.00;102284.81;5120355;28;20150;-79
2023/01/21 08:27:02;;;;;;;60.88;30.50;;;;;;;-2.51;100.00;102284.28;5123506;28;20131;-78
2023/01/21 08:29:29;;;;;;;68.45;31.23;;;;;;;-2.47;100.00;102279.06;5109359;28;20394;-78
2023/01/21 08:31:56;;;;;;;56.78;29.98;;;;;;;-2.36;100.00;102278.81;5105188;28;20123;-79
2023/01/21 08:34:22;;;;;;;56.22;29.27;;;;;;;-2.33;100.00;102282.16;5102925;28;20048;-78
2023/01/21 08:37:02;;;;;;;57.25;30.02;;;;;;;-2.43;100.00;102285.81;5097689;28;20052;-78
2023/01/21 08:39:29;;;;;;;60.05;29.95;;;;;;;-2.52;100.00;102280.88;5110665;28;20047;-78
2023/01/21 08:41:57;;;;;;;60.45;29.30;;;;;;;-2.46;100.00;102280.75;5103057;28;20083;-77
2023/01/21 08:44:23;;;;;;;56.80;29.30;;;;;;;-2.48;100.00;102292.75;5095067;28;20106;-78
2023/01/21 08:46:50;;;;;;;59.05;29.85;;;;;;;-2.40;100.00;102293.44;5095778;28;20131;-78
2023/01/21 08:49:17;;;;;;;61.25;30.35;;;;;;;-2.46;100.00;102287.59;5127907;22;20115;-80
2023/01/21 08:51:43;;;;;;;57.13;29.17;;;;;;;-2.57;100.00;102286.97;5122329;28;20039;-80
2023/01/21 08:54:10;;;;;;;52.20;28.88;;;;;;;-2.54;100.00;102294.59;5130041;28;20078;-79
2023/01/21 08:56:39;;;;;;;57.88;29.92;;;;;;;-2.62;100.00;102284.50;5129454;28;20122;-80
2023/01/21 08:59:07;;;;;;;59.58;30.63;;;;;;;-2.38;100.00;102304.50;5117340;28;20048;-80
2023/01/21 09:01:35;;;;;;;61.03;30.80;;;;;;;-2.25;100.00;102314.47;5109499;28;20083;-82
2023/01/21 09:04:02;;;;;;;57.70;31.23;;;;;;;-2.20;100.00;102322.94;5108557;28;20048;-82
2023/01/21 09:06:30;;;;;;;61.97;31.85;;;;;;;-2.21;100.00;102321.25;5107945;28;20059;-82
2023/01/21 09:08:57;;;;;;;52.85;29.98;;;;;;;-2.15;100.00;102332.22;5100609;28;20052;-82
2023/01/21 09:11:24;;;;;;;63.47;32.15;;;;;;;-2.09;100.00;102320.97;5100652;28;20052;-81
2023/01/21 09:13:51;;;;;;;59.30;30.83;;;;;;;-2.07;100.00;102329.47;5100578;28;20452;-80
2023/01/21 09:16:22;;;;;;;58.75;32.25;;;;;;;-2.09;100.00;102331.22;5106133;28;20044;-83
2023/01/21 09:18:49;;;;;;;58.45;28.60;;;;;;;-2.05;100.00;102336.25;5104150;28;20104;-80
2023/01/21 09:21:16;;;;;;;57.13;28.65;;;;;;;-1.99;100.00;102337.00;5087919;28;20086;-79
2023/01/21 09:23:43;;;;;;;62.08;31.35;;;;;;;-1.94;100.00;102345.44;5104079;28;20048;-79
2023/01/21 09:26:13;;;;;;;59.40;31.23;;;;;;;-1.97;100.00;102350.66;5107661;28;20072;-79
2023/01/21 09:28:41;;;;;;;59.03;30.20;;;;;;;-1.93;100.00;102352.28;5098901;28;20059;-80
2023/01/21 09:31:11;;;;;;;61.08;30.35;;;;;;;-1.91;100.00;102350.50;5069729;28;20075;-82
2023/01/21 09:33:42;;;;;;;61.17;30.52;;;;;;;-1.81;100.00;102363.06;5074966;28;20044;-79
2023/01/21 09:36:13;;;;;;;63.20;31.25;;;;;;;-1.71;100.00;102363.72;5082639;28;20083;-79
2023/01/21 09:38:42;;;;;;;63.75;31.25;;;;;;;-1.67;100.00;102361.03;5082328;28;20045;-79
2023/01/21 09:41:21;;;;;;;56.05;29.73;;;;;;;-1.78;100.00;102360.44;5085313;28;20048;-81
2023/01/21 09:43:51;;;;;;;61.92;31.85;;;;;;;-1.69;100.00;102365.38;5084530;28;20068;-80
2023/01/21 09:46:31;;;;;;;58.05;29.58;;;;;;;-1.68;100.00;102363.66;5085202;28;20053;-82
2023/01/21 09:49:02;;;;;;;63.38;31.00;;;;;;;-1.54;100.00;102376.16;5084735;28;20052;-81
2023/01/21 09:51:49;;;;;;;61.97;30.88;;;;;;;-1.49;100.00;102379.47;5086101;28;20044;-81
2023/01/21 09:54:25;;;;;;;59.55;29.20;;;;;;;-1.46;100.00;102371.69;5083617;28;20056;-81
2023/01/21 09:57:25;;;;;;;58.47;30.67;;;;;;;-1.30;100.00;102379.84;5078381;28;20062;-80
2023/01/21 10:00:05;;;;;;;61.42;30.38;;;;;;;-1.27;100.00;102380.63;5077359;28;20079;-80
2023/01/21 10:02:42;;;;;;;57.55;30.15;;;;;;;-1.11;100.00;102392.22;5081519;28;20036;-80
2023/01/21 10:05:29;;;;;;;57.65;29.85;;;;;;;-1.06;100.00;102395.50;5077628;28;20132;-80
2023/01/21 10:08:04;;;;;;;57.90;27.85;;;;;;;-1.20;100.00;102392.44;5083471;28;20078;-81
2023/01/21 10:10:38;;;;;;;58.65;28.05;;;;;;;-1.14;100.00;102389.72;5080094;28;20482;-80
2023/01/21 10:13:18;;;;;;;49.97;25.75;;;;;;;-1.06;100.00;102390.38;5076271;28;20164;-80
2023/01/21 10:15:55;;;;;;;45.95;24.95;;;;;;;-1.08;100.00;102392.16;5077864;28;20055;-83
2023/01/21 10:18:26;;;;;;;45.38;24.10;;;;;;;-1.08;100.00;102371.59;5080511;28;20044;-81
2023/01/21 10:20:58;;;;;;;49.25;24.02;;;;;;;-0.96;100.00;102369.59;5079799;28;20044;-80
2023/01/21 10:23:34;;;;;;;46.38;23.30;;;;;;;-0.87;99.73;102387.31;5079383;28;20090;-79
2023/01/21 10:26:07;;;;;;;46.95;24.40;;;;;;;-0.84;99.19;102390.66;5081069;28;20048;-81
2023/01/21 10:28:38;;;;;;;44.38;23.52;;;;;;;-0.90;99.00;102384.81;5075668;28;20174;-81
2023/01/21 10:31:22;;;;;;;45.95;23.85;;;;;;;-0.91;98.82;102383.13;5074845;28;20059;-81
2023/01/21 10:33:55;;;;;;;50.75;26.92;;;;;;;-0.84;99.60;102395.78;5084713;28;20124;-81
2023/01/21 10:36:46;;;;;;;50.85;26.27;;;;;;;-0.74;99.66;102388.69;5087355;28;20048;-81
2023/01/21 10:39:22;;;;;;;46.03;24.73;;;;;;;-0.83;99.42;102388.94;5083139;28;20056;-80
2023/01/21 10:42:06;;;;;;;51.40;26.98;;;;;;;-0.82;98.78;102378.59;5082018;28;20048;-81
2023/01/21 10:44:43;;;;;;;48.47;26.27;;;;;;;-0.81;99.28;102397.44;5079030;28;20056;-81
2023/01/21 10:47:29;;;;;;;49.30;26.10;;;;;;;-0.71;99.53;102396.31;5081022;28;20060;-82
2023/01/21 10:50:03;;;;;;;50.22;26.63;;;;;;;-0.69;99.38;102392.81;5076723;28;20053;-80
2023/01/21 10:52:38;;;;;;;41.80;22.95;;;;;;;-0.76;98.47;102390.44;5086571;28;20052;-82
2023/01/21 10:55:19;;;;;;;40.40;24.58;;;;;;;-0.69;98.90;102390.25;5080094;28;20079;-79
2023/01/21 10:57:55;;;;;;;44.35;22.75;;;;;;;-0.66;98.25;102386.75;5080512;28;20048;-79
2023/01/21 11:00:25;;;;;;;39.58;22.73;;;;;;;-0.68;98.04;102391.09;5075241;28;20108;-79
2023/01/21 11:02:55;;;;;;;40.33;23.15;;;;;;;-0.60;97.88;102394.31;5082549;28;20060;-81
2023/01/21 11:05:24;;;;;;;42.75;22.90;;;;;;;-0.44;97.81;102390.41;5074557;28;20458;-81
2023/01/21 11:07:53;;;;;;;41.67;22.80;;;;;;;-0.46;97.99;102392.19;5083403;28;20084;-80
2023/01/21 11:10:23;;;;;;;40.50;22.88;;;;;;;-0.48;97.63;102388.00;5075453;28;20128;-80
2023/01/21 11:12:50;;;;;;;37.88;22.77;;;;;;;-0.52;96.91;102391.53;5065674;28;20041;-80
2023/01/21 11:15:18;;;;;;;37.45;22.85;;;;;;;-0.43;97.48;102396.41;5075555;28;20068;-83
2023/01/21 11:17:47;;;;;;;39.55;21.45;;;;;;;-0.43;97.10;102392.09;5082741;28;20080;-82
2023/01/21 11:20:20;;;;;;;34.72;21.13;;;;;;;-0.48;97.05;102388.84;5071855;28;20056;-82
2023/01/21 11:22:50;;;;;;;37.78;20.88;;;;;;;-0.39;97.10;102396.28;5077112;28;20068;-82